createdAt,value
2022-11-22T00:02:23.348Z,2.00
2022-11-22T00:07:30.393Z,2.02
2022-11-22T00:12:37.244Z,2.19
2022-11-22T00:17:44.271Z,2.27
2022-11-22T00:22:51.159Z,2.58
2022-11-22T00:27:58.322Z,2.12
2022-11-22T00:33:05.213Z,6.73
2022-11-22T00:38:12.194Z,5.97
2022-11-22T00:43:19.122Z,3.12
2022-11-22T00:48:26.315Z,25.58
2022-11-22T00:53:33.251Z,9.04
2022-11-22T00:58:40.247Z,3.34
2022-11-22T01:03:47.260Z,4.10
2022-11-22T01:08:54.293Z,2.90
2022-11-22T01:14:01.185Z,2.93
2022-11-22T01:19:08.240Z,2.33
2022-11-22T01:24:15.193Z,2.90
2022-11-22T01:29:22.164Z,5.14
2022-11-22T01:34:29.076Z,3.33
2022-11-22T01:39:36.136Z,2.75
2022-11-22T01:44:43.051Z,5.45
2022-11-22T01:49:50.092Z,3.17
2022-11-22T01:54:57.027Z,7.61
2022-11-22T02:00:04.016Z,5.65
2022-11-22T02:05:10.965Z,17.80
2022-11-22T02:10:18.068Z,19.01
2022-11-22T02:15:24.964Z,25.53
2022-11-22T02:20:32.084Z,12.73
2022-11-22T02:25:39.030Z,2.81
2022-11-22T02:30:46.123Z,2.09
2022-11-22T02:35:52.995Z,2.25
2022-11-22T02:41:00.152Z,2.44
2022-11-22T02:46:07.045Z,2.23
2022-11-22T02:51:14.198Z,2.50
2022-11-22T02:56:21.082Z,2.32
2022-11-22T03:01:28.141Z,2.19
2022-11-22T03:06:35.005Z,2.31
2022-11-22T03:11:42.110Z,2.43
2022-11-22T03:16:49.038Z,2.16
2022-11-22T03:21:56.046Z,2.08
2022-11-22T03:27:02.995Z,2.26
2022-11-22T03:32:10.113Z,2.04
2022-11-22T03:37:17.053Z,2.22
2022-11-22T03:42:24.176Z,2.00
2022-11-22T03:47:31.126Z,2.03
2022-11-22T03:52:38.072Z,1.79
2022-11-22T03:57:44.950Z,2.10
2022-11-22T04:02:52.069Z,1.93
2022-11-22T04:07:58.999Z,2.00
2022-11-22T04:13:06.302Z,1.82
2022-11-22T04:18:13.199Z,2.08
2022-11-22T04:23:20.313Z,1.94
2022-11-22T04:28:46.983Z,2.06
2022-11-22T04:33:34.050Z,1.92
2022-11-22T04:38:40.943Z,1.98
2022-11-22T04:43:47.981Z,2.16
2022-11-22T04:48:55.009Z,2.04
2022-11-22T04:54:02.115Z,1.91
2022-11-22T04:59:08.997Z,2.22
2022-11-22T05:04:16.082Z,2.06
2022-11-22T05:09:22.974Z,2.02
2022-11-22T05:14:29.956Z,2.36
2022-11-22T05:19:36.888Z,2.07
2022-11-22T05:24:43.916Z,2.21
2022-11-22T05:29:50.818Z,3.09
2022-11-22T05:34:57.826Z,4.31
2022-11-22T05:40:04.730Z,3.00
2022-11-22T05:45:11.790Z,2.25
2022-11-22T05:50:18.708Z,2.09
2022-11-22T05:55:25.709Z,1.90
2022-11-22T06:00:32.609Z,2.32
2022-11-22T06:05:39.776Z,2.66
2022-11-22T06:10:46.779Z,2.24
2022-11-22T06:15:53.871Z,2.17
2022-11-22T06:21:00.812Z,2.08
2022-11-22T06:26:07.853Z,2.34
2022-11-22T06:31:14.784Z,5.61
2022-11-22T06:36:21.843Z,2.46
2022-11-22T06:41:28.745Z,2.47
2022-11-22T06:46:35.819Z,2.68
2022-11-22T06:51:42.738Z,2.36
2022-11-22T06:56:49.686Z,2.60
2022-11-22T07:01:59.006Z,2.52
2022-11-22T07:07:03.452Z,2.43
2022-11-22T07:12:10.230Z,2.51
2022-11-22T07:17:17.366Z,2.46
2022-11-22T07:22:24.268Z,2.70
2022-11-22T07:27:31.345Z,2.73
2022-11-22T07:32:38.316Z,2.48
2022-11-22T07:37:45.450Z,2.49
2022-11-22T07:42:56.980Z,2.88
2022-11-22T07:47:59.119Z,2.82
2022-11-22T07:53:06.593Z,2.63
2022-11-22T07:58:13.657Z,2.67
2022-11-22T08:03:25.433Z,2.36
2022-11-22T08:08:27.121Z,2.30
2022-11-22T08:13:34.013Z,2.23
2022-11-22T08:18:41.035Z,2.39
2022-11-22T08:23:47.991Z,2.50
2022-11-22T08:28:55.020Z,7.24
2022-11-22T08:34:01.926Z,2.52
2022-11-22T08:39:08.890Z,2.70
2022-11-22T08:44:15.825Z,3.21
2022-11-22T08:49:22.845Z,2.53
2022-11-22T08:54:33.551Z,2.61
2022-11-22T08:59:36.406Z,2.68
2022-11-22T09:04:43.242Z,2.66
2022-11-22T09:09:50.245Z,2.74
2022-11-22T09:14:57.210Z,2.93
2022-11-22T09:20:04.292Z,3.18
2022-11-22T09:25:11.182Z,2.96
2022-11-22T09:30:18.438Z,3.10
2022-11-22T09:35:25.427Z,5.08
2022-11-22T09:40:32.426Z,2.97
2022-11-22T09:45:39.357Z,3.39
2022-11-22T09:50:46.506Z,2.88
2022-11-22T09:55:53.434Z,2.78
2022-11-22T10:01:00.539Z,2.81
2022-11-22T10:06:07.407Z,3.16
2022-11-22T10:11:14.484Z,3.16
2022-11-22T10:16:21.433Z,3.29
2022-11-22T10:21:28.483Z,3.31
2022-11-22T10:26:35.367Z,3.17
2022-11-22T10:31:42.523Z,3.00
2022-11-22T10:36:49.425Z,2.92
2022-11-22T10:41:56.509Z,3.10
2022-11-22T10:47:03.418Z,2.73
2022-11-22T10:52:10.518Z,2.70
2022-11-22T10:57:17.428Z,2.95
2022-11-22T11:02:24.528Z,3.15
2022-11-22T11:07:31.656Z,5.17
2022-11-22T11:12:38.859Z,8.70
2022-11-22T11:17:45.776Z,4.37
2022-11-22T11:23:13.858Z,3.77
2022-11-22T11:27:59.186Z,3.39
2022-11-22T11:33:06.224Z,3.16
2022-11-22T11:38:14.020Z,2.98
2022-11-22T11:43:21.190Z,2.98
2022-11-22T11:48:28.209Z,2.91
2022-11-22T11:53:35.207Z,2.75
2022-11-22T11:58:42.092Z,2.47
2022-11-22T12:03:55.355Z,2.37
2022-11-22T12:08:52.304Z,2.29
2022-11-22T12:19:06.059Z,2.27
2022-11-22T12:24:42.707Z,2.31
2022-11-22T12:29:20.885Z,2.54
2022-11-22T12:34:30.787Z,3.42
2022-11-22T12:39:37.504Z,2.47
2022-11-22T12:44:44.562Z,3.19
2022-11-22T12:49:51.513Z,2.86
2022-11-22T12:54:58.775Z,2.89
2022-11-22T13:00:05.724Z,2.78
2022-11-22T13:05:12.763Z,2.88
2022-11-22T13:15:26.213Z,3.29
2022-11-22T13:25:43.152Z,2.70
2022-11-22T13:30:50.059Z,2.74
2022-11-22T13:35:57.067Z,2.35
2022-11-22T13:41:03.947Z,2.57
2022-11-22T13:46:10.950Z,2.36
2022-11-22T13:51:17.914Z,2.38
2022-11-22T13:56:25.100Z,2.81
2022-11-22T14:01:32.082Z,2.65
2022-11-22T14:06:39.136Z,4.16
2022-11-22T14:11:46.075Z,2.70
2022-11-22T14:16:53.159Z,2.18
2022-11-22T14:22:00.088Z,2.24
2022-11-22T14:27:07.162Z,2.31
2022-11-22T14:32:14.116Z,2.55
2022-11-22T14:37:21.168Z,2.81
2022-11-22T14:42:28.167Z,2.69
2022-11-22T14:47:35.212Z,3.19
2022-11-22T14:52:42.114Z,4.95
2022-11-22T14:57:49.361Z,3.49
2022-11-22T15:02:56.337Z,3.55
2022-11-22T15:09:17.452Z,3.58
2022-11-22T15:13:09.858Z,3.31
2022-11-22T15:59:10.143Z,2.78
2022-11-22T16:04:17.196Z,2.78
2022-11-22T16:09:24.343Z,3.18
2022-11-22T16:14:31.290Z,2.91
2022-11-22T16:19:38.334Z,2.86
2022-11-22T16:24:45.248Z,2.85
2022-11-22T16:29:52.684Z,3.15
2022-11-22T16:35:22.058Z,4.78
2022-11-22T16:40:06.219Z,4.03
2022-11-22T16:45:13.185Z,3.63
2022-11-22T16:50:20.181Z,3.53
2022-11-22T16:55:27.062Z,3.40
2022-11-22T17:00:34.203Z,3.08
2022-11-22T17:05:41.044Z,3.08
2022-11-22T17:10:48.032Z,3.61
2022-11-22T17:15:54.944Z,3.38
2022-11-22T17:21:02.041Z,3.25
2022-11-22T17:26:08.954Z,3.17
2022-11-22T17:31:15.920Z,3.14
2022-11-22T17:36:22.929Z,4.01
2022-11-22T17:41:30.131Z,3.32
2022-11-22T17:46:37.075Z,4.19
2022-11-22T17:51:44.122Z,3.79
2022-11-22T17:56:51.034Z,4.16
2022-11-22T18:01:58.507Z,4.13
2022-11-22T18:07:05.439Z,3.18
2022-11-22T18:12:12.647Z,3.45
2022-11-22T18:17:22.399Z,2.99
2022-11-22T18:22:29.431Z,3.74
2022-11-22T18:27:40.665Z,4.37
2022-11-22T18:32:42.902Z,3.28
2022-11-22T18:37:49.799Z,3.18
2022-11-22T18:42:57.023Z,3.26
2022-11-22T18:48:03.933Z,3.90
2022-11-22T18:53:11.064Z,3.70
2022-11-22T18:58:17.978Z,4.38
2022-11-22T19:03:24.939Z,4.62
2022-11-22T19:08:31.832Z,4.54
2022-11-22T19:13:39.010Z,4.98
2022-11-22T19:18:49.814Z,4.56
2022-11-22T19:23:57.632Z,5.14
2022-11-22T19:29:04.537Z,5.66
2022-11-22T19:34:11.657Z,6.22
2022-11-22T19:39:18.679Z,6.23
2022-11-22T19:44:25.745Z,5.99
2022-11-22T19:49:32.924Z,6.36
2022-11-22T19:54:39.803Z,6.54
2022-11-22T19:59:46.737Z,5.93
2022-11-22T20:04:54.039Z,6.68
2022-11-22T20:10:00.940Z,6.52
2022-11-22T20:15:07.997Z,7.08
2022-11-22T20:20:14.931Z,6.70
2022-11-22T20:25:22.028Z,7.89
2022-11-22T20:30:28.916Z,7.11
2022-11-22T20:35:35.953Z,6.67
2022-11-22T20:40:42.890Z,5.82
2022-11-22T20:45:49.946Z,6.70
2022-11-22T20:50:56.900Z,6.67
2022-11-22T20:56:03.917Z,6.20
2022-11-22T21:01:10.847Z,6.84
2022-11-22T21:06:17.848Z,7.26
2022-11-22T21:11:24.881Z,6.19
2022-11-22T21:16:31.972Z,6.41
2022-11-22T21:21:38.895Z,6.28
2022-11-22T21:26:46.049Z,6.97
2022-11-22T21:31:52.997Z,6.20
2022-11-22T21:37:00.122Z,6.57
2022-11-22T21:42:07.080Z,6.21
2022-11-22T21:47:14.162Z,6.49
2022-11-22T21:52:21.091Z,5.66
2022-11-22T21:57:28.183Z,6.60
2022-11-22T22:02:35.125Z,6.47
2022-11-22T22:07:52.751Z,5.93
2022-11-22T22:12:48.681Z,6.43
2022-11-22T22:17:55.832Z,6.72
2022-11-22T22:23:02.743Z,5.78
2022-11-22T22:28:09.793Z,6.05
2022-11-22T22:33:16.807Z,5.61
2022-11-22T22:38:24.003Z,5.22
2022-11-22T22:43:30.890Z,5.36
2022-11-22T22:48:37.877Z,4.94
2022-11-22T22:53:44.843Z,4.99
2022-11-22T22:58:52.088Z,5.39
2022-11-22T23:03:59.041Z,4.98
2022-11-22T23:09:06.076Z,4.84
2022-11-22T23:14:12.989Z,4.15
2022-11-22T23:19:20.159Z,3.77
2022-11-22T23:24:27.043Z,3.84
2022-11-22T23:29:34.261Z,3.46
2022-11-22T23:34:40.956Z,3.98
2022-11-22T23:39:47.977Z,3.93
2022-11-22T23:44:54.926Z,4.01
2022-11-22T23:50:02.061Z,4.06
2022-11-22T23:55:08.959Z,4.15
